AirNav   Air Wisconsin Up To $57,000 Bonus
 
 1670 users online  

MO97 SSM Health St. Joseph Hospital-Wentzville Heliport
Wentzville, Missouri, USA

GOING TO WENTZVILLE?


FAA INFORMATION EFFECTIVE 17 JUNE 2021

Location

FAA Identifier: MO97
Lat/Long: 38-49-21.8000N 090-52-53.3400W
38-49.363333N 090-52.889000W
38.8227222,-90.8814833
(estimated)
Elevation: 620 ft. / 189 m (estimated)
Variation: 02E (1985)
From city: 1 mile N of WENTZVILLE, MO
Time zone: UTC -5 (UTC -6 during Standard Time)
Zip code: 63385

Heliport Operations

Heliport use: Private use, MEDICAL USE.
Activation date: 06/1991
Control tower: no
ARTCC: KANSAS CITY CENTER
FSS: SAINT LOUIS FLIGHT SERVICE STATION
Attendance: UNATNDD
Wind indicator: yes
Segmented circle: no
Lights: FOR FLOOD LGTS CALL 314-327-1000.

Heliport Communications

WX ASOS at SUS (14 nm SE): 134.8 (314-890-7255)
WX AWOS-3 at FYG (15 nm S): 121.325 (636-433-5914)

Nearby radio navigation aids

VOR radial/distance  VOR name  Freq  Var
FTZr024/8.8FORISTELL VORTAC110.8005E
STLr262/18.8ST LOUIS VORTAC117.4001E

 
NDB name  Hdg/Dist  Freq  Var  ID
SNOOP335/12.332601WSU ... ..-
CIVIC MEMORIAL265/38.826301WCVM -.-. ...- --

Heliport Services

Runway Information

Helipad H1

Dimensions: 42 x 42 ft. / 13 x 13 m
Surface: asphalt
Runway edge lights: FLD
Latitude: 38-49.363333N
Longitude: 090-52.889000W
Elevation: 620.0 ft.
Traffic pattern: leftleft

Heliport Ownership and Management from official FAA records

Ownership: Privately-owned
Owner: SSM HEALTH CARE ST. LOUIS
500 MEDICAL DRIVE
WENTZVILLE, MO 63385
Phone (314) 989-2895
Manager: JOHN O'BRIEN
1015 CORPORATE SQUARE DR., STE 110, SUITE 160
ST LOUIS, MO 63132
Phone (314) 989-2895

Additional Remarks

OWNER DESIRES HELIPAD NOT BE CHARTED.
FOR CD CTC ST LOUIS APCH AT 314-890-1018.

Instrument Procedures

There are no published instrument procedures at MO97.

Some nearby airports with instrument procedures:

KSUS - Spirit of St Louis Airport (14 nm SE)
KFYG - Washington Regional Airport (15 nm S)
1H0 - Creve Coeur Airport (18 nm E)
KSET - St Charles County Smartt Airport (22 nm E)
KSTL - St Louis Lambert International Airport (24 nm E)
 
Loc | Ops | Rwys | IFR | FBO | Links
Com | Nav | Svcs | Stats | Notes
Area around MO97 (SSM Health St. Joseph Hospital-Wentzville Heliport)
 
Road maps at: MapQuest Bing Google
 
Aerial photo
No photo
 
Sectional chart

 
Airport distance calculator
Flying to SSM Health St. Joseph Hospital-Wentzville Heliport? Find the distance to fly.

From to MO97

Sunrise and sunset
Times for 24-Jun-2021
 Local
(UTC-5)
 Zulu
(UTC)
Morning civil twilight05:0810:08
Sunrise05:4010:40
Sunset20:3101:31
Evening civil twilight21:0302:03

Current date and time
Zulu (UTC)  24-Jun-2021 19:30:04
Local (UTC-5)  24-Jun-2021 14:30:04
 
METAR
KSUS 
15nm SE 
241854Z 14004KT 10SM CLR 25/22 A2996 RMK AO2 RAE31 TSE1758 PRESFR SLP136 P0000 T02500222
KFYG 
15nm S 
241915Z AUTO 16010KT 8SM CLR 26/25 A2992 RMK AO2
KSET 
22nm E 
241854Z AUTO 17008KT 10SM FEW120 26/22 A2996 RMK AO2 RAE1756B08E31 SLP139 P0001 T02610217 $
KSTL 
24nm E 
241851Z 21008KT 10SM FEW050 SCT070 BKN160 OVC250 27/21 A2999 RMK AO2 SLP146 RAE41 TSE22 P0000 T02720211
TAF
KSUS 
15nm SE 
241723Z 2418/2518 20008KT P6SM VCTS OVC050CB TEMPO 2418/2420 3SM TSRA FM242100 18012KT P6SM BKN050 FM250700 19009KT 4SM SHRA BR VCTS OVC040CB FM251300 19009KT P6SM BKN035
NOTAMs
Click for the latest NOTAMs
NOTAMs are issued by the DoD/FAA and will open in a separate window not controlled by AirNav.

 

 
 

Would you like to see your business listed on this page?

 If your business provides an interesting product or service to pilots, flight crews, aircraft, or users of the SSM Health St. Joseph Hospital-Wentzville Heliport, you should consider listing it here.  To start the listing process, click on the button below
 
Add a business
 

Other Pages about SSM Health St. Joseph Hospital-Wentzville Heliport

Update a link
 
Copyright © AirNav, LLC. All rights reserved. Privacy Policy  Contact